sensor_id;sensor_type;location;lat;lon;timestamp;P1;durP1;ratioP1;P2;durP2;ratioP2
8714;SDS011;4394;51.208;8.904;2023-11-19T00:00:47;1.63;;;1.53;;
8714;SDS011;4394;51.208;8.904;2023-11-19T00:03:38;1.50;;;1.40;;
8714;SDS011;4394;51.208;8.904;2023-11-19T00:06:26;2.20;;;1.67;;
8714;SDS011;4394;51.208;8.904;2023-11-19T00:09:15;1.80;;;1.70;;
8714;SDS011;4394;51.208;8.904;2023-11-19T00:12:06;1.60;;;1.50;;
8714;SDS011;4394;51.208;8.904;2023-11-19T00:14:54;1.73;;;1.63;;
8714;SDS011;4394;51.208;8.904;2023-11-19T00:17:44;1.60;;;1.50;;
8714;SDS011;4394;51.208;8.904;2023-11-19T00:20:33;1.80;;;1.70;;
8714;SDS011;4394;51.208;8.904;2023-11-19T00:23:21;1.87;;;1.77;;
8714;SDS011;4394;51.208;8.904;2023-11-19T00:26:09;1.90;;;1.80;;
8714;SDS011;4394;51.208;8.904;2023-11-19T00:28:59;2.17;;;2.00;;
8714;SDS011;4394;51.208;8.904;2023-11-19T00:31:47;2.13;;;2.00;;
8714;SDS011;4394;51.208;8.904;2023-11-19T00:34:35;1.80;;;1.70;;
8714;SDS011;4394;51.208;8.904;2023-11-19T00:37:23;2.10;;;1.90;;
8714;SDS011;4394;51.208;8.904;2023-11-19T00:40:11;1.77;;;1.67;;
8714;SDS011;4394;51.208;8.904;2023-11-19T00:43:00;1.93;;;1.83;;
8714;SDS011;4394;51.208;8.904;2023-11-19T00:45:51;1.70;;;1.60;;
8714;SDS011;4394;51.208;8.904;2023-11-19T00:48:39;2.10;;;1.90;;
8714;SDS011;4394;51.208;8.904;2023-11-19T00:51:27;1.97;;;1.80;;
8714;SDS011;4394;51.208;8.904;2023-11-19T00:54:17;1.93;;;1.73;;
8714;SDS011;4394;51.208;8.904;2023-11-19T00:57:05;2.03;;;1.83;;
8714;SDS011;4394;51.208;8.904;2023-11-19T00:59:53;2.27;;;2.10;;
8714;SDS011;4394;51.208;8.904;2023-11-19T01:02:43;2.07;;;1.97;;
8714;SDS011;4394;51.208;8.904;2023-11-19T01:05:31;2.13;;;1.97;;
8714;SDS011;4394;51.208;8.904;2023-11-19T01:08:20;2.13;;;2.00;;
8714;SDS011;4394;51.208;8.904;2023-11-19T01:11:08;2.50;;;2.30;;
8714;SDS011;4394;51.208;8.904;2023-11-19T01:13:56;2.13;;;1.97;;
8714;SDS011;4394;51.208;8.904;2023-11-19T01:16:44;1.67;;;1.57;;
8714;SDS011;4394;51.208;8.904;2023-11-19T01:19:33;2.10;;;1.90;;
8714;SDS011;4394;51.208;8.904;2023-11-19T01:22:22;1.90;;;1.80;;
8714;SDS011;4394;51.208;8.904;2023-11-19T01:25:10;2.20;;;2.00;;
8714;SDS011;4394;51.208;8.904;2023-11-19T01:27:58;2.00;;;1.90;;
8714;SDS011;4394;51.208;8.904;2023-11-19T01:30:50;2.60;;;2.40;;
8714;SDS011;4394;51.208;8.904;2023-11-19T01:33:38;2.37;;;2.17;;
8714;SDS011;4394;51.208;8.904;2023-11-19T01:36:30;3.13;;;2.20;;
8714;SDS011;4394;51.208;8.904;2023-11-19T01:39:18;1.87;;;1.77;;
8714;SDS011;4394;51.208;8.904;2023-11-19T01:42:07;1.90;;;1.63;;
8714;SDS011;4394;51.208;8.904;2023-11-19T01:44:56;2.13;;;1.93;;
8714;SDS011;4394;51.208;8.904;2023-11-19T01:47:46;2.20;;;1.90;;
8714;SDS011;4394;51.208;8.904;2023-11-19T01:50:35;1.97;;;1.80;;
8714;SDS011;4394;51.208;8.904;2023-11-19T01:53:24;5.03;;;4.63;;
8714;SDS011;4394;51.208;8.904;2023-11-19T01:56:13;2.30;;;2.10;;
8714;SDS011;4394;51.208;8.904;2023-11-19T01:59:02;1.63;;;1.53;;
8714;SDS011;4394;51.208;8.904;2023-11-19T02:01:51;2.93;;;1.93;;
8714;SDS011;4394;51.208;8.904;2023-11-19T02:04:47;3.63;;;2.07;;
8714;SDS011;4394;51.208;8.904;2023-11-19T02:07:37;1.70;;;1.60;;
8714;SDS011;4394;51.208;8.904;2023-11-19T02:10:26;1.07;;;0.97;;
8714;SDS011;4394;51.208;8.904;2023-11-19T02:13:15;3.20;;;1.37;;
8714;SDS011;4394;51.208;8.904;2023-11-19T02:16:03;1.37;;;1.20;;
8714;SDS011;4394;51.208;8.904;2023-11-19T02:18:53;1.70;;;1.60;;
8714;SDS011;4394;51.208;8.904;2023-11-19T02:21:41;1.80;;;1.70;;
8714;SDS011;4394;51.208;8.904;2023-11-19T02:24:29;2.40;;;1.60;;
8714;SDS011;4394;51.208;8.904;2023-11-19T02:27:23;2.20;;;2.00;;
8714;SDS011;4394;51.208;8.904;2023-11-19T02:30:20;1.80;;;1.70;;
8714;SDS011;4394;51.208;8.904;2023-11-19T02:33:12;2.27;;;2.07;;
8714;SDS011;4394;51.208;8.904;2023-11-19T02:36:01;2.20;;;2.00;;
8714;SDS011;4394;51.208;8.904;2023-11-19T02:38:50;2.27;;;2.07;;
8714;SDS011;4394;51.208;8.904;2023-11-19T02:41:38;1.90;;;1.70;;
8714;SDS011;4394;51.208;8.904;2023-11-19T02:44:26;1.67;;;1.57;;
8714;SDS011;4394;51.208;8.904;2023-11-19T02:47:18;1.53;;;1.40;;
8714;SDS011;4394;51.208;8.904;2023-11-19T02:50:08;2.30;;;2.10;;
8714;SDS011;4394;51.208;8.904;2023-11-19T02:53:00;1.63;;;1.53;;
8714;SDS011;4394;51.208;8.904;2023-11-19T02:55:49;1.90;;;1.63;;
8714;SDS011;4394;51.208;8.904;2023-11-19T02:58:37;1.73;;;1.63;;
8714;SDS011;4394;51.208;8.904;2023-11-19T03:01:25;1.80;;;1.60;;
8714;SDS011;4394;51.208;8.904;2023-11-19T03:04:19;1.73;;;1.63;;
8714;SDS011;4394;51.208;8.904;2023-11-19T03:07:09;2.00;;;1.40;;
8714;SDS011;4394;51.208;8.904;2023-11-19T03:09:58;2.10;;;1.90;;
8714;SDS011;4394;51.208;8.904;2023-11-19T03:12:46;2.27;;;2.07;;
8714;SDS011;4394;51.208;8.904;2023-11-19T03:15:34;2.83;;;2.13;;
8714;SDS011;4394;51.208;8.904;2023-11-19T03:18:22;3.00;;;2.70;;
8714;SDS011;4394;51.208;8.904;2023-11-19T03:21:12;6.23;;;3.50;;
8714;SDS011;4394;51.208;8.904;2023-11-19T03:24:00;3.63;;;3.30;;
8714;SDS011;4394;51.208;8.904;2023-11-19T03:26:48;3.70;;;3.00;;
8714;SDS011;4394;51.208;8.904;2023-11-19T03:29:37;3.93;;;2.90;;
8714;SDS011;4394;51.208;8.904;2023-11-19T03:32:25;2.80;;;2.43;;
8714;SDS011;4394;51.208;8.904;2023-11-19T03:35:14;2.97;;;2.23;;
8714;SDS011;4394;51.208;8.904;2023-11-19T03:38:03;3.17;;;2.87;;
8714;SDS011;4394;51.208;8.904;2023-11-19T03:40:51;3.67;;;2.90;;
8714;SDS011;4394;51.208;8.904;2023-11-19T03:43:39;3.50;;;3.03;;
8714;SDS011;4394;51.208;8.904;2023-11-19T03:46:28;3.40;;;2.90;;
8714;SDS011;4394;51.208;8.904;2023-11-19T03:49:17;2.93;;;2.63;;
8714;SDS011;4394;51.208;8.904;2023-11-19T03:52:05;3.00;;;2.43;;
8714;SDS011;4394;51.208;8.904;2023-11-19T03:55:07;3.07;;;2.77;;
8714;SDS011;4394;51.208;8.904;2023-11-19T03:57:55;3.10;;;2.77;;
8714;SDS011;4394;51.208;8.904;2023-11-19T04:00:44;3.13;;;2.83;;
8714;SDS011;4394;51.208;8.904;2023-11-19T04:03:32;3.87;;;3.00;;
8714;SDS011;4394;51.208;8.904;2023-11-19T04:06:20;2.67;;;2.47;;
8714;SDS011;4394;51.208;8.904;2023-11-19T04:09:08;3.10;;;2.80;;
8714;SDS011;4394;51.208;8.904;2023-11-19T04:11:58;3.23;;;2.80;;
8714;SDS011;4394;51.208;8.904;2023-11-19T04:14:46;2.77;;;2.50;;
8714;SDS011;4394;51.208;8.904;2023-11-19T04:17:47;3.50;;;3.00;;
8714;SDS011;4394;51.208;8.904;2023-11-19T04:20:35;3.03;;;2.40;;
8714;SDS011;4394;51.208;8.904;2023-11-19T04:23:24;2.90;;;2.60;;
8714;SDS011;4394;51.208;8.904;2023-11-19T04:26:12;2.83;;;2.63;;
8714;SDS011;4394;51.208;8.904;2023-11-19T04:29:01;3.10;;;2.80;;
8714;SDS011;4394;51.208;8.904;2023-11-19T04:31:50;2.50;;;2.30;;
8714;SDS011;4394;51.208;8.904;2023-11-19T04:34:38;2.63;;;2.33;;
8714;SDS011;4394;51.208;8.904;2023-11-19T04:37:26;2.23;;;2.03;;
8714;SDS011;4394;51.208;8.904;2023-11-19T04:40:14;2.10;;;1.90;;
8714;SDS011;4394;51.208;8.904;2023-11-19T04:43:04;2.80;;;2.10;;
8714;SDS011;4394;51.208;8.904;2023-11-19T04:45:55;2.40;;;2.20;;
8714;SDS011;4394;51.208;8.904;2023-11-19T04:48:43;2.30;;;2.10;;
8714;SDS011;4394;51.208;8.904;2023-11-19T04:51:31;2.30;;;2.10;;
8714;SDS011;4394;51.208;8.904;2023-11-19T04:54:24;2.20;;;2.00;;
8714;SDS011;4394;51.208;8.904;2023-11-19T04:57:12;3.77;;;2.30;;
8714;SDS011;4394;51.208;8.904;2023-11-19T05:00:01;3.50;;;2.40;;
8714;SDS011;4394;51.208;8.904;2023-11-19T05:03:04;2.73;;;2.40;;
8714;SDS011;4394;51.208;8.904;2023-11-19T05:05:53;4.20;;;2.10;;
8714;SDS011;4394;51.208;8.904;2023-11-19T05:08:41;2.83;;;2.40;;
8714;SDS011;4394;51.208;8.904;2023-11-19T05:11:29;3.43;;;2.27;;
8714;SDS011;4394;51.208;8.904;2023-11-19T05:14:17;2.57;;;2.10;;
8714;SDS011;4394;51.208;8.904;2023-11-19T05:17:06;3.13;;;2.40;;
8714;SDS011;4394;51.208;8.904;2023-11-19T05:19:56;2.93;;;2.57;;
8714;SDS011;4394;51.208;8.904;2023-11-19T05:22:44;3.47;;;2.20;;
8714;SDS011;4394;51.208;8.904;2023-11-19T05:25:33;4.47;;;2.50;;
8714;SDS011;4394;51.208;8.904;2023-11-19T05:28:22;4.13;;;2.47;;
8714;SDS011;4394;51.208;8.904;2023-11-19T05:31:11;4.27;;;2.30;;
8714;SDS011;4394;51.208;8.904;2023-11-19T05:33:59;3.13;;;2.20;;
8714;SDS011;4394;51.208;8.904;2023-11-19T05:36:48;7.93;;;2.60;;
8714;SDS011;4394;51.208;8.904;2023-11-19T05:39:37;6.63;;;2.90;;
8714;SDS011;4394;51.208;8.904;2023-11-19T05:42:25;4.87;;;2.40;;
8714;SDS011;4394;51.208;8.904;2023-11-19T05:45:13;3.23;;;2.40;;
8714;SDS011;4394;51.208;8.904;2023-11-19T05:48:02;3.43;;;2.30;;
8714;SDS011;4394;51.208;8.904;2023-11-19T05:50:51;3.47;;;2.50;;
8714;SDS011;4394;51.208;8.904;2023-11-19T05:53:41;5.17;;;2.20;;
8714;SDS011;4394;51.208;8.904;2023-11-19T05:56:29;4.77;;;1.93;;
8714;SDS011;4394;51.208;8.904;2023-11-19T05:59:19;3.73;;;1.83;;
8714;SDS011;4394;51.208;8.904;2023-11-19T06:02:09;3.67;;;2.10;;
8714;SDS011;4394;51.208;8.904;2023-11-19T06:04:57;5.07;;;1.97;;
8714;SDS011;4394;51.208;8.904;2023-11-19T06:07:45;5.60;;;2.73;;
8714;SDS011;4394;51.208;8.904;2023-11-19T06:10:35;5.87;;;2.20;;
8714;SDS011;4394;51.208;8.904;2023-11-19T06:13:23;3.73;;;2.23;;
8714;SDS011;4394;51.208;8.904;2023-11-19T06:16:12;3.13;;;2.00;;
8714;SDS011;4394;51.208;8.904;2023-11-19T06:19:01;3.33;;;1.87;;
8714;SDS011;4394;51.208;8.904;2023-11-19T06:21:49;3.57;;;2.03;;
8714;SDS011;4394;51.208;8.904;2023-11-19T06:24:37;6.67;;;1.93;;
8714;SDS011;4394;51.208;8.904;2023-11-19T06:27:28;5.00;;;2.00;;
8714;SDS011;4394;51.208;8.904;2023-11-19T06:30:17;8.07;;;2.10;;
8714;SDS011;4394;51.208;8.904;2023-11-19T06:33:05;5.93;;;1.87;;
8714;SDS011;4394;51.208;8.904;2023-11-19T06:35:53;10.10;;;2.50;;
8714;SDS011;4394;51.208;8.904;2023-11-19T06:38:41;9.20;;;2.50;;
8714;SDS011;4394;51.208;8.904;2023-11-19T06:41:30;7.37;;;2.93;;
8714;SDS011;4394;51.208;8.904;2023-11-19T06:44:19;7.40;;;2.43;;
8714;SDS011;4394;51.208;8.904;2023-11-19T06:47:07;7.27;;;3.20;;
8714;SDS011;4394;51.208;8.904;2023-11-19T06:49:55;9.07;;;2.70;;
8714;SDS011;4394;51.208;8.904;2023-11-19T06:52:43;7.93;;;2.83;;
8714;SDS011;4394;51.208;8.904;2023-11-19T06:55:32;10.03;;;2.67;;
8714;SDS011;4394;51.208;8.904;2023-11-19T06:58:20;6.30;;;2.20;;
8714;SDS011;4394;51.208;8.904;2023-11-19T07:01:09;9.27;;;2.37;;
8714;SDS011;4394;51.208;8.904;2023-11-19T07:03:58;9.60;;;2.70;;
8714;SDS011;4394;51.208;8.904;2023-11-19T07:06:48;6.83;;;3.00;;
8714;SDS011;4394;51.208;8.904;2023-11-19T07:09:38;8.80;;;2.77;;
8714;SDS011;4394;51.208;8.904;2023-11-19T07:12:26;9.57;;;3.17;;
8714;SDS011;4394;51.208;8.904;2023-11-19T07:15:14;7.47;;;2.47;;
8714;SDS011;4394;51.208;8.904;2023-11-19T07:18:05;14.00;;;4.47;;
8714;SDS011;4394;51.208;8.904;2023-11-19T07:20:53;13.83;;;3.73;;
8714;SDS011;4394;51.208;8.904;2023-11-19T07:23:41;7.00;;;2.80;;
8714;SDS011;4394;51.208;8.904;2023-11-19T07:26:30;7.77;;;2.73;;
8714;SDS011;4394;51.208;8.904;2023-11-19T07:29:18;8.07;;;2.93;;
8714;SDS011;4394;51.208;8.904;2023-11-19T07:32:11;12.23;;;3.50;;
8714;SDS011;4394;51.208;8.904;2023-11-19T07:35:01;9.55;;;3.20;;
8714;SDS011;4394;51.208;8.904;2023-11-19T07:37:50;18.60;;;3.30;;
8714;SDS011;4394;51.208;8.904;2023-11-19T07:40:39;12.10;;;3.33;;
8714;SDS011;4394;51.208;8.904;2023-11-19T07:43:43;14.03;;;3.17;;
8714;SDS011;4394;51.208;8.904;2023-11-19T07:46:33;11.97;;;2.83;;
8714;SDS011;4394;51.208;8.904;2023-11-19T07:49:21;12.83;;;3.03;;
8714;SDS011;4394;51.208;8.904;2023-11-19T07:52:10;10.20;;;3.03;;
8714;SDS011;4394;51.208;8.904;2023-11-19T07:55:01;11.63;;;2.90;;
8714;SDS011;4394;51.208;8.904;2023-11-19T07:57:49;17.03;;;3.50;;
8714;SDS011;4394;51.208;8.904;2023-11-19T08:00:39;15.70;;;3.00;;
8714;SDS011;4394;51.208;8.904;2023-11-19T08:03:27;11.40;;;3.27;;
8714;SDS011;4394;51.208;8.904;2023-11-19T08:06:16;13.90;;;3.37;;
8714;SDS011;4394;51.208;8.904;2023-11-19T08:09:05;15.03;;;3.67;;
8714;SDS011;4394;51.208;8.904;2023-11-19T08:12:00;18.87;;;3.40;;
8714;SDS011;4394;51.208;8.904;2023-11-19T08:14:48;11.77;;;3.30;;
8714;SDS011;4394;51.208;8.904;2023-11-19T08:17:36;9.67;;;3.10;;
8714;SDS011;4394;51.208;8.904;2023-11-19T08:20:25;19.03;;;3.13;;
8714;SDS011;4394;51.208;8.904;2023-11-19T08:23:13;11.77;;;3.17;;
8714;SDS011;4394;51.208;8.904;2023-11-19T08:26:04;9.70;;;3.03;;
8714;SDS011;4394;51.208;8.904;2023-11-19T08:28:53;12.43;;;3.47;;
8714;SDS011;4394;51.208;8.904;2023-11-19T08:31:41;12.77;;;3.00;;
8714;SDS011;4394;51.208;8.904;2023-11-19T08:34:29;10.03;;;2.67;;
8714;SDS011;4394;51.208;8.904;2023-11-19T08:37:18;10.83;;;2.80;;
8714;SDS011;4394;51.208;8.904;2023-11-19T08:40:09;9.87;;;2.60;;
8714;SDS011;4394;51.208;8.904;2023-11-19T08:43:00;9.60;;;3.20;;
8714;SDS011;4394;51.208;8.904;2023-11-19T08:45:48;7.67;;;2.30;;
8714;SDS011;4394;51.208;8.904;2023-11-19T08:48:36;15.03;;;2.73;;
8714;SDS011;4394;51.208;8.904;2023-11-19T08:51:25;9.37;;;2.93;;
8714;SDS011;4394;51.208;8.904;2023-11-19T08:54:15;10.27;;;2.83;;
8714;SDS011;4394;51.208;8.904;2023-11-19T08:57:03;10.67;;;2.90;;
8714;SDS011;4394;51.208;8.904;2023-11-19T08:59:55;11.37;;;3.30;;
8714;SDS011;4394;51.208;8.904;2023-11-19T09:02:43;10.73;;;2.60;;
8714;SDS011;4394;51.208;8.904;2023-11-19T09:05:31;12.70;;;3.20;;
8714;SDS011;4394;51.208;8.904;2023-11-19T09:08:19;13.80;;;3.27;;
8714;SDS011;4394;51.208;8.904;2023-11-19T09:11:07;9.90;;;2.80;;
8714;SDS011;4394;51.208;8.904;2023-11-19T09:13:56;12.33;;;4.13;;
8714;SDS011;4394;51.208;8.904;2023-11-19T09:16:45;15.00;;;3.10;;
8714;SDS011;4394;51.208;8.904;2023-11-19T09:19:34;10.30;;;2.90;;
8714;SDS011;4394;51.208;8.904;2023-11-19T09:22:22;12.63;;;3.50;;
8714;SDS011;4394;51.208;8.904;2023-11-19T09:25:10;17.27;;;3.50;;
8714;SDS011;4394;51.208;8.904;2023-11-19T09:28:03;16.83;;;3.53;;
8714;SDS011;4394;51.208;8.904;2023-11-19T09:30:51;10.60;;;3.17;;
8714;SDS011;4394;51.208;8.904;2023-11-19T09:33:41;11.33;;;3.00;;
8714;SDS011;4394;51.208;8.904;2023-11-19T09:36:29;14.63;;;3.67;;
8714;SDS011;4394;51.208;8.904;2023-11-19T09:39:18;14.77;;;2.97;;
8714;SDS011;4394;51.208;8.904;2023-11-19T09:42:07;10.87;;;2.93;;
8714;SDS011;4394;51.208;8.904;2023-11-19T09:44:55;13.27;;;3.20;;
8714;SDS011;4394;51.208;8.904;2023-11-19T09:47:45;11.87;;;3.07;;
8714;SDS011;4394;51.208;8.904;2023-11-19T09:50:35;9.20;;;2.83;;
8714;SDS011;4394;51.208;8.904;2023-11-19T09:53:24;11.43;;;3.10;;
8714;SDS011;4394;51.208;8.904;2023-11-19T09:56:12;12.13;;;3.50;;
8714;SDS011;4394;51.208;8.904;2023-11-19T09:59:01;13.37;;;3.57;;
8714;SDS011;4394;51.208;8.904;2023-11-19T10:01:49;18.83;;;3.77;;
8714;SDS011;4394;51.208;8.904;2023-11-19T10:04:38;13.57;;;3.00;;
8714;SDS011;4394;51.208;8.904;2023-11-19T10:07:28;11.50;;;3.10;;
8714;SDS011;4394;51.208;8.904;2023-11-19T10:10:16;14.35;;;3.67;;
8714;SDS011;4394;51.208;8.904;2023-11-19T10:13:05;16.70;;;3.10;;
8714;SDS011;4394;51.208;8.904;2023-11-19T10:15:55;12.60;;;3.10;;
8714;SDS011;4394;51.208;8.904;2023-11-19T10:18:44;14.53;;;3.57;;
8714;SDS011;4394;51.208;8.904;2023-11-19T10:21:33;15.73;;;3.80;;
8714;SDS011;4394;51.208;8.904;2023-11-19T10:24:32;11.83;;;3.37;;
8714;SDS011;4394;51.208;8.904;2023-11-19T10:27:25;12.70;;;3.67;;
8714;SDS011;4394;51.208;8.904;2023-11-19T10:30:13;16.23;;;3.30;;
8714;SDS011;4394;51.208;8.904;2023-11-19T10:33:05;16.53;;;4.53;;
8714;SDS011;4394;51.208;8.904;2023-11-19T10:35:55;10.17;;;3.07;;
8714;SDS011;4394;51.208;8.904;2023-11-19T10:38:53;12.33;;;3.33;;
8714;SDS011;4394;51.208;8.904;2023-11-19T10:41:44;14.37;;;3.23;;
8714;SDS011;4394;51.208;8.904;2023-11-19T10:44:32;10.43;;;3.27;;
8714;SDS011;4394;51.208;8.904;2023-11-19T10:47:23;13.50;;;3.63;;
8714;SDS011;4394;51.208;8.904;2023-11-19T10:50:15;18.27;;;3.50;;
8714;SDS011;4394;51.208;8.904;2023-11-19T10:53:03;14.20;;;3.97;;
8714;SDS011;4394;51.208;8.904;2023-11-19T10:55:52;15.43;;;3.97;;
8714;SDS011;4394;51.208;8.904;2023-11-19T10:58:46;15.40;;;3.70;;
8714;SDS011;4394;51.208;8.904;2023-11-19T11:01:39;13.20;;;3.20;;
8714;SDS011;4394;51.208;8.904;2023-11-19T11:04:33;14.47;;;3.83;;
8714;SDS011;4394;51.208;8.904;2023-11-19T11:07:26;11.07;;;2.90;;
8714;SDS011;4394;51.208;8.904;2023-11-19T11:10:25;11.33;;;3.07;;
8714;SDS011;4394;51.208;8.904;2023-11-19T11:13:14;16.93;;;3.40;;
8714;SDS011;4394;51.208;8.904;2023-11-19T11:16:04;15.43;;;3.87;;
8714;SDS011;4394;51.208;8.904;2023-11-19T11:18:54;13.20;;;3.20;;
8714;SDS011;4394;51.208;8.904;2023-11-19T11:21:43;10.67;;;3.13;;
8714;SDS011;4394;51.208;8.904;2023-11-19T11:24:41;10.77;;;3.30;;
8714;SDS011;4394;51.208;8.904;2023-11-19T11:27:48;11.77;;;3.03;;
8714;SDS011;4394;51.208;8.904;2023-11-19T11:30:46;14.70;;;3.70;;
8714;SDS011;4394;51.208;8.904;2023-11-19T11:33:58;15.43;;;3.73;;
8714;SDS011;4394;51.208;8.904;2023-11-19T11:37:10;9.97;;;2.70;;
8714;SDS011;4394;51.208;8.904;2023-11-19T11:40:06;13.43;;;3.07;;
8714;SDS011;4394;51.208;8.904;2023-11-19T11:43:02;12.47;;;3.33;;
8714;SDS011;4394;51.208;8.904;2023-11-19T11:45:51;14.47;;;3.13;;
8714;SDS011;4394;51.208;8.904;2023-11-19T11:48:42;12.30;;;3.87;;
8714;SDS011;4394;51.208;8.904;2023-11-19T11:54:53;11.70;;;3.13;;
8714;SDS011;4394;51.208;8.904;2023-11-19T11:57:51;14.20;;;3.17;;
8714;SDS011;4394;51.208;8.904;2023-11-19T12:00:40;13.82;;;3.47;;
8714;SDS011;4394;51.208;8.904;2023-11-19T12:03:29;14.53;;;3.13;;
8714;SDS011;4394;51.208;8.904;2023-11-19T12:06:20;10.87;;;3.00;;
8714;SDS011;4394;51.208;8.904;2023-11-19T12:09:10;14.83;;;3.10;;
8714;SDS011;4394;51.208;8.904;2023-11-19T12:12:17;18.13;;;3.53;;
8714;SDS011;4394;51.208;8.904;2023-11-19T12:15:08;9.17;;;2.90;;
8714;SDS011;4394;51.208;8.904;2023-11-19T12:17:57;12.47;;;3.20;;
8714;SDS011;4394;51.208;8.904;2023-11-19T12:20:45;8.97;;;2.77;;
8714;SDS011;4394;51.208;8.904;2023-11-19T12:23:33;13.70;;;3.90;;
8714;SDS011;4394;51.208;8.904;2023-11-19T12:26:33;11.73;;;2.93;;
8714;SDS011;4394;51.208;8.904;2023-11-19T12:29:22;16.27;;;2.77;;
8714;SDS011;4394;51.208;8.904;2023-11-19T12:32:10;10.73;;;3.20;;
8714;SDS011;4394;51.208;8.904;2023-11-19T12:35:01;15.70;;;4.23;;
8714;SDS011;4394;51.208;8.904;2023-11-19T12:37:50;19.10;;;3.70;;
8714;SDS011;4394;51.208;8.904;2023-11-19T12:40:39;10.77;;;3.43;;
8714;SDS011;4394;51.208;8.904;2023-11-19T12:43:29;12.33;;;3.33;;
8714;SDS011;4394;51.208;8.904;2023-11-19T12:46:18;14.70;;;3.23;;
8714;SDS011;4394;51.208;8.904;2023-11-19T12:49:07;10.80;;;3.23;;
8714;SDS011;4394;51.208;8.904;2023-11-19T12:51:58;7.97;;;2.40;;
8714;SDS011;4394;51.208;8.904;2023-11-19T12:54:47;9.97;;;3.07;;
8714;SDS011;4394;51.208;8.904;2023-11-19T12:57:36;14.27;;;2.93;;
8714;SDS011;4394;51.208;8.904;2023-11-19T13:00:26;12.10;;;3.03;;
8714;SDS011;4394;51.208;8.904;2023-11-19T13:03:22;12.27;;;2.77;;
8714;SDS011;4394;51.208;8.904;2023-11-19T13:06:17;9.20;;;2.80;;
8714;SDS011;4394;51.208;8.904;2023-11-19T13:09:07;13.37;;;2.90;;
8714;SDS011;4394;51.208;8.904;2023-11-19T13:11:59;14.77;;;3.20;;
8714;SDS011;4394;51.208;8.904;2023-11-19T13:14:59;18.80;;;3.30;;
8714;SDS011;4394;51.208;8.904;2023-11-19T13:17:48;13.43;;;2.93;;
8714;SDS011;4394;51.208;8.904;2023-11-19T13:20:37;12.23;;;3.17;;
8714;SDS011;4394;51.208;8.904;2023-11-19T13:23:25;12.43;;;3.60;;
8714;SDS011;4394;51.208;8.904;2023-11-19T13:26:13;13.00;;;3.47;;
8714;SDS011;4394;51.208;8.904;2023-11-19T13:29:02;11.23;;;2.83;;
8714;SDS011;4394;51.208;8.904;2023-11-19T13:31:50;9.83;;;2.50;;
8714;SDS011;4394;51.208;8.904;2023-11-19T13:34:40;9.13;;;2.80;;
8714;SDS011;4394;51.208;8.904;2023-11-19T13:37:28;8.43;;;2.83;;
8714;SDS011;4394;51.208;8.904;2023-11-19T13:40:16;10.23;;;2.53;;
8714;SDS011;4394;51.208;8.904;2023-11-19T13:43:06;9.60;;;3.30;;
8714;SDS011;4394;51.208;8.904;2023-11-19T13:45:55;10.00;;;2.53;;
8714;SDS011;4394;51.208;8.904;2023-11-19T13:48:44;5.93;;;2.40;;
8714;SDS011;4394;51.208;8.904;2023-11-19T13:51:34;8.93;;;2.40;;
8714;SDS011;4394;51.208;8.904;2023-11-19T13:54:22;7.20;;;2.53;;
8714;SDS011;4394;51.208;8.904;2023-11-19T13:57:10;10.40;;;2.70;;
8714;SDS011;4394;51.208;8.904;2023-11-19T13:59:58;13.60;;;3.33;;
8714;SDS011;4394;51.208;8.904;2023-11-19T14:02:46;12.77;;;3.00;;
8714;SDS011;4394;51.208;8.904;2023-11-19T14:05:35;10.93;;;2.40;;
8714;SDS011;4394;51.208;8.904;2023-11-19T14:08:25;9.27;;;2.73;;
8714;SDS011;4394;51.208;8.904;2023-11-19T14:11:13;9.60;;;3.00;;
8714;SDS011;4394;51.208;8.904;2023-11-19T14:14:01;9.40;;;3.37;;
8714;SDS011;4394;51.208;8.904;2023-11-19T14:16:49;13.83;;;3.13;;
8714;SDS011;4394;51.208;8.904;2023-11-19T14:19:37;9.40;;;2.73;;
8714;SDS011;4394;51.208;8.904;2023-11-19T14:22:26;8.87;;;2.67;;
8714;SDS011;4394;51.208;8.904;2023-11-19T14:25:16;6.47;;;2.47;;
8714;SDS011;4394;51.208;8.904;2023-11-19T14:28:04;13.17;;;3.17;;
8714;SDS011;4394;51.208;8.904;2023-11-19T14:30:53;10.57;;;2.60;;
8714;SDS011;4394;51.208;8.904;2023-11-19T14:33:43;10.73;;;2.77;;
8714;SDS011;4394;51.208;8.904;2023-11-19T14:36:32;8.83;;;2.53;;
8714;SDS011;4394;51.208;8.904;2023-11-19T14:39:21;11.37;;;2.90;;
8714;SDS011;4394;51.208;8.904;2023-11-19T14:42:10;13.00;;;3.00;;
8714;SDS011;4394;51.208;8.904;2023-11-19T14:44:59;9.27;;;2.60;;
8714;SDS011;4394;51.208;8.904;2023-11-19T14:47:48;10.10;;;2.73;;
8714;SDS011;4394;51.208;8.904;2023-11-19T14:50:36;7.27;;;2.33;;
8714;SDS011;4394;51.208;8.904;2023-11-19T14:53:24;11.73;;;2.30;;
8714;SDS011;4394;51.208;8.904;2023-11-19T14:56:12;7.83;;;2.60;;
8714;SDS011;4394;51.208;8.904;2023-11-19T14:59:02;10.00;;;2.10;;
8714;SDS011;4394;51.208;8.904;2023-11-19T15:01:50;10.33;;;2.70;;
8714;SDS011;4394;51.208;8.904;2023-11-19T15:04:38;9.60;;;2.27;;
8714;SDS011;4394;51.208;8.904;2023-11-19T15:07:28;10.20;;;2.73;;
8714;SDS011;4394;51.208;8.904;2023-11-19T15:10:16;7.40;;;2.33;;
8714;SDS011;4394;51.208;8.904;2023-11-19T15:13:04;6.80;;;2.37;;
8714;SDS011;4394;51.208;8.904;2023-11-19T15:15:54;12.37;;;2.60;;
8714;SDS011;4394;51.208;8.904;2023-11-19T15:18:42;10.03;;;2.50;;
8714;SDS011;4394;51.208;8.904;2023-11-19T15:21:31;6.50;;;2.40;;
8714;SDS011;4394;51.208;8.904;2023-11-19T15:24:19;6.30;;;2.47;;
8714;SDS011;4394;51.208;8.904;2023-11-19T15:27:07;9.13;;;2.30;;
8714;SDS011;4394;51.208;8.904;2023-11-19T15:30:00;13.27;;;2.43;;
8714;SDS011;4394;51.208;8.904;2023-11-19T15:32:50;6.63;;;2.23;;
8714;SDS011;4394;51.208;8.904;2023-11-19T15:35:38;6.17;;;1.77;;
8714;SDS011;4394;51.208;8.904;2023-11-19T15:38:27;11.50;;;2.40;;
8714;SDS011;4394;51.208;8.904;2023-11-19T15:41:16;6.23;;;2.30;;
8714;SDS011;4394;51.208;8.904;2023-11-19T15:44:04;12.67;;;2.50;;
8714;SDS011;4394;51.208;8.904;2023-11-19T15:46:53;9.73;;;2.23;;
8714;SDS011;4394;51.208;8.904;2023-11-19T15:49:43;9.87;;;2.23;;
8714;SDS011;4394;51.208;8.904;2023-11-19T15:52:31;10.23;;;2.70;;
8714;SDS011;4394;51.208;8.904;2023-11-19T15:55:20;7.17;;;2.67;;
8714;SDS011;4394;51.208;8.904;2023-11-19T15:58:08;8.60;;;2.53;;
8714;SDS011;4394;51.208;8.904;2023-11-19T16:00:56;9.83;;;2.80;;
8714;SDS011;4394;51.208;8.904;2023-11-19T16:03:47;11.07;;;2.93;;
8714;SDS011;4394;51.208;8.904;2023-11-19T16:06:40;9.30;;;2.60;;
8714;SDS011;4394;51.208;8.904;2023-11-19T16:09:29;10.83;;;3.00;;
8714;SDS011;4394;51.208;8.904;2023-11-19T16:12:17;11.30;;;2.60;;
8714;SDS011;4394;51.208;8.904;2023-11-19T16:15:05;6.17;;;2.80;;
8714;SDS011;4394;51.208;8.904;2023-11-19T16:17:55;7.47;;;2.50;;
8714;SDS011;4394;51.208;8.904;2023-11-19T16:20:44;10.20;;;2.60;;
8714;SDS011;4394;51.208;8.904;2023-11-19T16:23:33;7.17;;;2.40;;
8714;SDS011;4394;51.208;8.904;2023-11-19T16:26:22;9.90;;;2.80;;
8714;SDS011;4394;51.208;8.904;2023-11-19T16:29:12;13.53;;;3.30;;
8714;SDS011;4394;51.208;8.904;2023-11-19T16:32:00;7.73;;;2.50;;
8714;SDS011;4394;51.208;8.904;2023-11-19T16:34:49;7.57;;;2.30;;
8714;SDS011;4394;51.208;8.904;2023-11-19T16:37:37;6.77;;;2.57;;
8714;SDS011;4394;51.208;8.904;2023-11-19T16:40:27;8.50;;;2.73;;
8714;SDS011;4394;51.208;8.904;2023-11-19T16:43:15;7.47;;;2.57;;
8714;SDS011;4394;51.208;8.904;2023-11-19T16:46:04;6.73;;;2.23;;
8714;SDS011;4394;51.208;8.904;2023-11-19T16:48:54;6.47;;;2.13;;
8714;SDS011;4394;51.208;8.904;2023-11-19T16:51:44;10.03;;;2.93;;
8714;SDS011;4394;51.208;8.904;2023-11-19T16:54:33;9.60;;;2.50;;
8714;SDS011;4394;51.208;8.904;2023-11-19T16:57:22;5.60;;;2.30;;
8714;SDS011;4394;51.208;8.904;2023-11-19T17:00:10;10.33;;;2.50;;
8714;SDS011;4394;51.208;8.904;2023-11-19T17:02:59;7.90;;;2.60;;
8714;SDS011;4394;51.208;8.904;2023-11-19T17:05:49;7.27;;;2.53;;
8714;SDS011;4394;51.208;8.904;2023-11-19T17:08:38;7.67;;;2.57;;
8714;SDS011;4394;51.208;8.904;2023-11-19T17:11:26;8.70;;;3.00;;
8714;SDS011;4394;51.208;8.904;2023-11-19T17:14:15;7.97;;;2.40;;
8714;SDS011;4394;51.208;8.904;2023-11-19T17:17:04;6.57;;;2.37;;
8714;SDS011;4394;51.208;8.904;2023-11-19T17:19:52;9.57;;;2.60;;
8714;SDS011;4394;51.208;8.904;2023-11-19T17:22:40;10.40;;;2.93;;
8714;SDS011;4394;51.208;8.904;2023-11-19T17:25:28;7.97;;;2.50;;
8714;SDS011;4394;51.208;8.904;2023-11-19T17:28:16;7.13;;;2.23;;
8714;SDS011;4394;51.208;8.904;2023-11-19T17:31:06;6.67;;;2.50;;